ETH600A HAAB-OMDB
Flight info
| Callsign | ETH600A |
|---|---|
| Flight time | N/A |
| Altitude | 35000 |
| Route | MIWAS2A MIWAS UT667 DWA UW885 HARGA UB404 DEMGO B404 RIGAM B400 DAXAM Y414 DEDSO R401 PEDOG Q308 KIPOK Q568 IMPED |
| Aircraft | B77W/H-SDE1E2E3FGHIJ2J3J4J5M1RWXY/LB1D1 |
Departure
| Time | 2026-04-28 12:58 |
|---|---|
| Airport | Addis Ababa Bole International Airport (HAAB) |
Arrival
| Time | N/A |
|---|---|
| Airport | Dubai International Airport (OMDB) |
| Time | Latitude | Longitude | Altitude | Speed | Heading |
|---|---|---|---|---|---|
| 2026-04-28 12:51 | 8.97529 | 38.78690 | 7333 ft | 8 kts | 253° |
| 2026-04-28 12:51 | 8.97517 | 38.78647 | 7333 ft | 10 kts | 253° |
| 2026-04-28 12:51 | 8.97485 | 38.78540 | 7333 ft | 13 kts | 253° |
| 2026-04-28 12:51 | 8.97457 | 38.78445 | 7333 ft | 15 kts | 253° |
| 2026-04-28 12:52 | 8.97426 | 38.78339 | 7333 ft | 12 kts | 253° |
| 2026-04-28 12:52 | 8.97416 | 38.78309 | 7333 ft | 4 kts | 245° |
| 2026-04-28 12:52 | 8.97382 | 38.78288 | 7333 ft | 4 kts | 170° |
| 2026-04-28 12:52 | 8.97369 | 38.78296 | 7333 ft | 2 kts | 144° |
| 2026-04-28 12:53 | 8.97353 | 38.78308 | 7333 ft | 4 kts | 142° |
| 2026-04-28 12:53 | 8.97333 | 38.78323 | 7333 ft | 0 kts | 142° |
| 2026-04-28 12:53 | 8.97332 | 38.78324 | 7333 ft | 1 kts | 142° |
| 2026-04-28 12:54 | 8.97314 | 38.78338 | 7333 ft | 4 kts | 142° |
| 2026-04-28 12:54 | 8.97288 | 38.78359 | 7333 ft | 5 kts | 142° |
| 2026-04-28 12:54 | 8.97274 | 38.78377 | 7333 ft | 5 kts | 119° |
| 2026-04-28 12:54 | 8.97272 | 38.78413 | 7333 ft | 4 kts | 85° |
| 2026-04-28 12:55 | 8.97277 | 38.78434 | 7333 ft | 0 kts | 74° |
| 2026-04-28 12:55 | 8.97277 | 38.78435 | 7333 ft | 0 kts | 74° |
| 2026-04-28 12:56 | 8.97278 | 38.78435 | 7333 ft | 0 kts | 74° |
| 2026-04-28 12:57 | 8.97290 | 38.78478 | 7333 ft | 18 kts | 74° |
| 2026-04-28 12:57 | 8.97379 | 38.78797 | 7333 ft | 76 kts | 74° |
| 2026-04-28 12:58 | 8.97584 | 38.79499 | 7333 ft | 131 kts | 73° |
| 2026-04-28 12:58 | 8.97778 | 38.80159 | 7333 ft | 163 kts | 73° |
| 2026-04-28 12:58 | 8.98260 | 38.81833 | 7651 ft | 194 kts | 74° |
| 2026-04-28 12:58 | 8.98631 | 38.83121 | 8278 ft | 190 kts | 74° |
| 2026-04-28 12:59 | 8.98884 | 38.83989 | 8616 ft | 194 kts | 74° |
| 2026-04-28 12:59 | 8.99276 | 38.85333 | 8922 ft | 205 kts | 74° |
| 2026-04-28 12:59 | 8.99687 | 38.86746 | 9280 ft | 216 kts | 74° |
| 2026-04-28 12:59 | 9.00281 | 38.88793 | 9678 ft | 237 kts | 74° |
| 2026-04-28 13:00 | 9.00593 | 38.89871 | 9970 ft | 243 kts | 74° |
| 2026-04-28 13:00 | 9.01081 | 38.91552 | 10467 ft | 255 kts | 74° |
| 2026-04-28 13:00 | 9.01597 | 38.93328 | 10847 ft | 274 kts | 74° |
| 2026-04-28 13:00 | 9.02153 | 38.95241 | 11315 ft | 291 kts | 73° |
| 2026-04-28 13:01 | 9.02744 | 38.97276 | 11766 ft | 311 kts | 73° |
| 2026-04-28 13:01 | 9.03365 | 38.99411 | 12244 ft | 328 kts | 73° |
| 2026-04-28 13:01 | 9.04028 | 39.01690 | 12769 ft | 345 kts | 73° |
| 2026-04-28 13:01 | 9.04712 | 39.04051 | 13226 ft | 362 kts | 73° |
| 2026-04-28 13:02 | 9.05407 | 39.06590 | 13768 ft | 376 kts | 75° |
| 2026-04-28 13:02 | 9.06077 | 39.09200 | 14301 ft | 389 kts | 75° |
| 2026-04-28 13:02 | 9.06742 | 39.11859 | 14902 ft | 398 kts | 75° |
| 2026-04-28 13:02 | 9.07433 | 39.14602 | 15648 ft | 403 kts | 75° |
| 2026-04-28 13:03 | 9.08130 | 39.17368 | 16382 ft | 408 kts | 75° |
| 2026-04-28 13:03 | 9.08843 | 39.20174 | 17069 ft | 413 kts | 75° |
| 2026-04-28 13:03 | 9.09562 | 39.23001 | 17738 ft | 417 kts | 75° |
| 2026-04-28 13:03 | 9.10290 | 39.25860 | 18385 ft | 421 kts | 76° |
| 2026-04-28 13:04 | 9.11025 | 39.28746 | 19011 ft | 425 kts | 76° |
| 2026-04-28 13:04 | 9.11765 | 39.31651 | 19658 ft | 428 kts | 76° |
| 2026-04-28 13:04 | 9.12502 | 39.34547 | 20188 ft | 433 kts | 76° |
| 2026-04-28 13:04 | 9.13260 | 39.37523 | 20691 ft | 438 kts | 76° |
| 2026-04-28 13:05 | 9.14029 | 39.40514 | 21266 ft | 441 kts | 76° |
| 2026-04-28 13:05 | 9.14805 | 39.43542 | 21721 ft | 447 kts | 76° |
| 2026-04-28 13:05 | 9.15589 | 39.46607 | 22180 ft | 451 kts | 76° |
| 2026-04-28 13:05 | 9.16383 | 39.49716 | 22633 ft | 455 kts | 76° |
| 2026-04-28 13:06 | 9.17167 | 39.52788 | 23148 ft | 458 kts | 76° |
| 2026-04-28 13:06 | 9.17970 | 39.55936 | 23568 ft | 462 kts | 76° |
| 2026-04-28 13:06 | 9.18777 | 39.59096 | 24058 ft | 465 kts | 77° |
| 2026-04-28 13:06 | 9.19586 | 39.62277 | 24468 ft | 468 kts | 77° |
| 2026-04-28 13:07 | 9.20399 | 39.65488 | 24784 ft | 474 kts | 76° |
| 2026-04-28 13:07 | 9.21224 | 39.68727 | 25192 ft | 476 kts | 76° |
| 2026-04-28 13:07 | 9.22052 | 39.71979 | 25637 ft | 478 kts | 76° |
| 2026-04-28 13:07 | 9.22883 | 39.75250 | 26047 ft | 481 kts | 76° |
| 2026-04-28 13:08 | 9.23719 | 39.78538 | 26442 ft | 483 kts | 76° |
| 2026-04-28 13:08 | 9.24557 | 39.81838 | 26822 ft | 485 kts | 76° |
| 2026-04-28 13:08 | 9.25389 | 39.85117 | 27198 ft | 487 kts | 76° |
| 2026-04-28 13:08 | 9.26234 | 39.88447 | 27570 ft | 490 kts | 76° |
| 2026-04-28 13:09 | 9.27084 | 39.91798 | 27962 ft | 491 kts | 76° |
| 2026-04-28 13:09 | 9.27934 | 39.95152 | 28312 ft | 493 kts | 76° |
| 2026-04-28 13:09 | 9.28790 | 39.98529 | 28628 ft | 495 kts | 76° |
| 2026-04-28 13:09 | 9.29648 | 40.01915 | 28936 ft | 497 kts | 76° |
| 2026-04-28 13:10 | 9.30508 | 40.05311 | 29232 ft | 499 kts | 76° |
| 2026-04-28 13:10 | 9.31372 | 40.08726 | 29520 ft | 501 kts | 76° |
| 2026-04-28 13:10 | 9.32240 | 40.12153 | 29795 ft | 503 kts | 76° |
| 2026-04-28 13:10 | 9.33117 | 40.15599 | 30058 ft | 505 kts | 76° |
| 2026-04-28 13:11 | 9.33982 | 40.19015 | 30306 ft | 507 kts | 76° |
| 2026-04-28 13:11 | 9.34854 | 40.22470 | 30622 ft | 507 kts | 76° |
| 2026-04-28 13:11 | 9.35725 | 40.25923 | 30994 ft | 505 kts | 76° |
| 2026-04-28 13:11 | 9.36593 | 40.29370 | 31387 ft | 503 kts | 76° |
| 2026-04-28 13:12 | 9.37457 | 40.32802 | 31827 ft | 501 kts | 76° |
| 2026-04-28 13:12 | 9.38321 | 40.36231 | 32172 ft | 500 kts | 76° |
| 2026-04-28 13:12 | 9.39179 | 40.39637 | 32533 ft | 499 kts | 76° |
| 2026-04-28 13:12 | 9.40032 | 40.43040 | 32904 ft | 498 kts | 76° |
| 2026-04-28 13:13 | 9.40775 | 40.46459 | 33274 ft | 496 kts | 78° |
| 2026-04-28 13:13 | 9.41396 | 40.49900 | 33646 ft | 495 kts | 80° |
| 2026-04-28 13:13 | 9.41948 | 40.53336 | 34001 ft | 494 kts | 81° |
| 2026-04-28 13:13 | 9.42483 | 40.56733 | 34349 ft | 493 kts | 81° |
| 2026-04-28 13:14 | 9.43043 | 40.60160 | 34716 ft | 491 kts | 80° |
| 2026-04-28 13:14 | 9.43616 | 40.63571 | 35065 ft | 490 kts | 80° |
| 2026-04-28 13:14 | 9.44196 | 40.66975 | 35423 ft | 488 kts | 80° |
| 2026-04-28 13:14 | 9.44778 | 40.70364 | 35774 ft | 487 kts | 80° |
| 2026-04-28 13:15 | 9.45352 | 40.73695 | 36104 ft | 486 kts | 80° |
| 2026-04-28 13:15 | 9.45936 | 40.77076 | 36451 ft | 484 kts | 80° |
| 2026-04-28 13:15 | 9.46522 | 40.80428 | 36812 ft | 482 kts | 79° |